Maersk Tangier — 9V3786 — position and weather

sailwx.info

Track history (hours):
 
Tides and Currents Weather Stations Pressure Air Temp Water Temp Dewpoint Dewpoint Depression Visibility Wind Speed Wind Dir Waves Ship Positions

Maersk Tangier

Last reported at 2018-Jun-23 23:31 UTC. Time now 2018-Jun-23 23:45 UTC.
Position N 49°51' W 002°43'.

Length 183 m; draft 7.8 m.

Type: Ship. MMSI: 565036000.

Date/timePositionNaut miles runAvg speedWind from/ knotsBaromVisibWave heightAir tempDewpointWater temp
2018-Jun-23 23:31N 49°51' W 002°43'611.5
2018-Jun-23 23:00N 49°49' W 002°52'811.7
2018-Jun-23 22:21N 49°48' W 003°03'411.9
2018-Jun-23 22:00N 49°46' W 003°10'611.9
2018-Jun-23 21:30N 49°44' W 003°18'612.0
2018-Jun-23 21:00N 49°40' W 003°25'612.2
2018-Jun-23 20:30N 49°37' W 003°33'612.1
2018-Jun-23 20:00N 49°34' W 003°41'612.2
2018-Jun-23 19:30N 49°30' W 003°49'612.4
2018-Jun-23 19:00N 49°27' W 003°57'1312.4
2018-Jun-23 17:57N 49°19' W 004°13'612.4
2018-Jun-23 17:30N 49°16' W 004°20'812.4
2018-Jun-23 16:50N 49°12' W 004°31'412.3
2018-Jun-23 16:30N 49°10' W 004°37'612.6
2018-Jun-23 16:01N 49°07' W 004°45'612.8
2018-Jun-23 15:31N 49°04' W 004°53'713.0
2018-Jun-23 15:00N 49°00' W 005°02'713.2
2018-Jun-23 14:31N 48°57' W 005°10'713.3
2018-Jun-23 13:59N 48°53' W 005°19'713.6
2018-Jun-23 13:30N 48°50' W 005°28'713.5
2018-Jun-23 13:00N 48°47' W 005°37'713.9
2018-Jun-23 12:30N 48°41' W 005°42'713.8
2018-Jun-23 12:00N 48°35' W 005°47'3014.0
2018-Jun-23 09:53N 48°08' W 006°08'  
2018-Jun-21 04:09N 38°18' W 011°48'312.4
2018-Jun-21 03:55N 38°16' W 011°49'812.4
2018-Jun-21 03:16N 38°08' W 011°52'412.4
2018-Jun-21 02:59N 38°04' W 011°54'37312.5
2018-Jun-19 21:06N 32°09' W 014°10'1212.3
2018-Jun-19 20:08N 31°57' W 014°14'212.3
2018-Jun-19 20:00N 31°56' W 014°14'9112.5
2018-Jun-19 12:44N 30°29' W 014°45'512.7
2018-Jun-19 12:18N 30°24' W 014°47'412.7
2018-Jun-19 11:59N 30°20' W 014°48'612.6
2018-Jun-19 11:30N 30°14' W 014°51'712.6
2018-Jun-19 10:58N 30°08' W 014°53'812.5
2018-Jun-19 10:22N 30°00' W 014°56'512.4
2018-Jun-19 10:00N 29°56' W 014°57'612.5
2018-Jun-19 09:30N 29°50' W 014°59'712.5
2018-Jun-19 08:57N 29°44' W 015°02'612.5
2018-Jun-19 08:29N 29°38' W 015°04'612.5
2018-Jun-19 08:00N 29°32' W 015°06'612.5
2018-Jun-19 07:29N 29°26' W 015°08'712.5
2018-Jun-19 06:58N 29°20' W 015°10'612.3
2018-Jun-19 06:29N 29°14' W 015°12'611.9
2018-Jun-19 05:59N 29°08' W 015°14'612.0
2018-Jun-19 05:30N 29°03' W 015°16'611.6
2018-Jun-19 05:00N 28°58' W 015°19'611.9
2018-Jun-19 04:30N 28°53' W 015°23'612.0
2018-Jun-19 04:00N 28°49' W 015°28'612.1
2018-Jun-19 03:30N 28°44' W 015°32'612.5
2018-Jun-19 03:00N 28°39' W 015°36'612.4
2018-Jun-19 02:30N 28°34' W 015°41'612.1
2018-Jun-19 01:59N 28°30' W 015°45'612.1
2018-Jun-19 01:30N 28°25' W 015°50'612.1
2018-Jun-19 01:00N 28°21' W 015°54'612.0
2018-Jun-19 00:28N 28°16' W 015°59'611.9
2018-Jun-19 00:00N 28°12' W 016°03'611.8
2018-Jun-18 23:29N 28°07' W 016°08'1612.0
2018-Jun-18 22:10N 27°55' W 016°19'511.7
2018-Jun-18 21:46N 27°51' W 016°22'311.9
2018-Jun-18 21:30N 27°49' W 016°24'811.8
2018-Jun-18 20:48N 27°42' W 016°31'412.2
2018-Jun-18 20:29N 27°39' W 016°33'  
Track history (hours):
 
Tides and Currents Weather Stations Pressure Air Temp Water Temp Dewpoint Dewpoint Depression Visibility Wind Speed Wind Dir Waves Ship Positions

Maersk Tangier

Last reported at 2018-Jun-23 23:31 UTC. Time now 2018-Jun-23 23:45 UTC.
Position N 49°51' W 002°43'.

Length 183 m; draft 7.8 m.

Type: Ship. MMSI: 565036000.

Date/timePositionNaut miles runAvg speedWind from/ knotsBaromVisibWave heightAir tempDewpointWater temp
2018-Jun-23 23:31N 49°51' W 002°43'611.5
2018-Jun-23 23:00N 49°49' W 002°52'811.7
2018-Jun-23 22:21N 49°48' W 003°03'411.9
2018-Jun-23 22:00N 49°46' W 003°10'611.9
2018-Jun-23 21:30N 49°44' W 003°18'612.0
2018-Jun-23 21:00N 49°40' W 003°25'612.2
2018-Jun-23 20:30N 49°37' W 003°33'612.1
2018-Jun-23 20:00N 49°34' W 003°41'612.2
2018-Jun-23 19:30N 49°30' W 003°49'612.4
2018-Jun-23 19:00N 49°27' W 003°57'1312.4
2018-Jun-23 17:57N 49°19' W 004°13'612.4
2018-Jun-23 17:30N 49°16' W 004°20'812.4
2018-Jun-23 16:50N 49°12' W 004°31'412.3
2018-Jun-23 16:30N 49°10' W 004°37'612.6
2018-Jun-23 16:01N 49°07' W 004°45'612.8
2018-Jun-23 15:31N 49°04' W 004°53'713.0
2018-Jun-23 15:00N 49°00' W 005°02'713.2
2018-Jun-23 14:31N 48°57' W 005°10'713.3
2018-Jun-23 13:59N 48°53' W 005°19'713.6
2018-Jun-23 13:30N 48°50' W 005°28'713.5
2018-Jun-23 13:00N 48°47' W 005°37'713.9
2018-Jun-23 12:30N 48°41' W 005°42'713.8
2018-Jun-23 12:00N 48°35' W 005°47'3014.0
2018-Jun-23 09:53N 48°08' W 006°08'  
2018-Jun-21 04:09N 38°18' W 011°48'312.4
2018-Jun-21 03:55N 38°16' W 011°49'812.4
2018-Jun-21 03:16N 38°08' W 011°52'412.4
2018-Jun-21 02:59N 38°04' W 011°54'37312.5
2018-Jun-19 21:06N 32°09' W 014°10'1212.3
2018-Jun-19 20:08N 31°57' W 014°14'212.3
2018-Jun-19 20:00N 31°56' W 014°14'9112.5
2018-Jun-19 12:44N 30°29' W 014°45'512.7
2018-Jun-19 12:18N 30°24' W 014°47'412.7
2018-Jun-19 11:59N 30°20' W 014°48'612.6
2018-Jun-19 11:30N 30°14' W 014°51'712.6
2018-Jun-19 10:58N 30°08' W 014°53'812.5
2018-Jun-19 10:22N 30°00' W 014°56'512.4
2018-Jun-19 10:00N 29°56' W 014°57'612.5
2018-Jun-19 09:30N 29°50' W 014°59'712.5
2018-Jun-19 08:57N 29°44' W 015°02'612.5
2018-Jun-19 08:29N 29°38' W 015°04'612.5
2018-Jun-19 08:00N 29°32' W 015°06'612.5
2018-Jun-19 07:29N 29°26' W 015°08'712.5
2018-Jun-19 06:58N 29°20' W 015°10'612.3
2018-Jun-19 06:29N 29°14' W 015°12'611.9
2018-Jun-19 05:59N 29°08' W 015°14'612.0
2018-Jun-19 05:30N 29°03' W 015°16'611.6
2018-Jun-19 05:00N 28°58' W 015°19'611.9
2018-Jun-19 04:30N 28°53' W 015°23'612.0
2018-Jun-19 04:00N 28°49' W 015°28'612.1
2018-Jun-19 03:30N 28°44' W 015°32'612.5
2018-Jun-19 03:00N 28°39' W 015°36'612.4
2018-Jun-19 02:30N 28°34' W 015°41'612.1
2018-Jun-19 01:59N 28°30' W 015°45'612.1
2018-Jun-19 01:30N 28°25' W 015°50'612.1
2018-Jun-19 01:00N 28°21' W 015°54'612.0
2018-Jun-19 00:28N 28°16' W 015°59'611.9
2018-Jun-19 00:00N 28°12' W 016°03'611.8
2018-Jun-18 23:29N 28°07' W 016°08'1612.0
2018-Jun-18 22:10N 27°55' W 016°19'511.7
2018-Jun-18 21:46N 27°51' W 016°22'311.9
2018-Jun-18 21:30N 27°49' W 016°24'811.8
2018-Jun-18 20:48N 27°42' W 016°31'412.2
2018-Jun-18 20:29N 27°39' W 016°33'  

Dump ship's entire track history